createdAt,value
2023-05-17T00:02:21.295Z,11.10
2023-05-17T00:04:48.292Z,11.10
2023-05-17T00:07:15.229Z,11.10
2023-05-17T00:09:42.097Z,11.10
2023-05-17T00:12:09.083Z,11.20
2023-05-17T00:14:36.072Z,11.20
2023-05-17T00:17:02.988Z,11.20
2023-05-17T00:19:31.932Z,11.20
2023-05-17T00:21:58.890Z,11.10
2023-05-17T00:24:26.716Z,11.10
2023-05-17T00:26:53.614Z,11.10
2023-05-17T00:29:20.591Z,11.10
2023-05-17T00:31:47.515Z,11.10
2023-05-17T00:34:14.412Z,11.00
2023-05-17T00:36:41.296Z,11.10
2023-05-17T00:39:08.207Z,11.10
2023-05-17T00:41:35.146Z,11.10
2023-05-17T00:44:02.234Z,11.20
2023-05-17T00:46:29.229Z,11.20
2023-05-17T00:48:56.429Z,11.10
2023-05-17T00:51:23.411Z,11.10
2023-05-17T00:53:50.663Z,11.10
2023-05-17T00:56:17.736Z,11.10
2023-05-17T00:58:44.669Z,11.10
2023-05-17T01:01:11.773Z,11.00
2023-05-17T01:03:38.850Z,10.90
2023-05-17T01:06:06.039Z,11.00
2023-05-17T01:08:32.915Z,11.00
2023-05-17T01:11:20.428Z,11.10
2023-05-17T01:14:05.536Z,11.20
2023-05-17T01:16:37.040Z,11.20
2023-05-17T01:19:36.708Z,11.20
2023-05-17T01:22:12.784Z,11.20
2023-05-17T01:25:05.003Z,11.20
2023-05-17T01:27:31.942Z,11.10
2023-05-17T01:29:58.847Z,11.10
2023-05-17T01:32:26.104Z,11.20
2023-05-17T01:34:53.196Z,11.20
2023-05-17T01:37:20.242Z,11.20
2023-05-17T01:39:47.186Z,11.20
2023-05-17T01:42:21.595Z,11.10
2023-05-17T01:44:58.644Z,11.20
2023-05-17T01:47:33.457Z,11.20
2023-05-17T01:50:00.429Z,11.20
2023-05-17T01:52:31.960Z,11.20
2023-05-17T01:55:16.262Z,11.20
2023-05-17T01:57:43.629Z,11.30
2023-05-17T02:00:10.718Z,11.30
2023-05-17T02:02:38.709Z,11.30
2023-05-17T02:05:06.187Z,11.40
2023-05-17T02:07:33.163Z,11.40
2023-05-17T02:10:00.180Z,11.40
2023-05-17T02:12:27.130Z,11.40
2023-05-17T02:14:54.044Z,11.40
2023-05-17T02:17:20.913Z,11.50
2023-05-17T02:19:47.845Z,11.50
2023-05-17T02:22:14.874Z,11.50
2023-05-17T02:24:41.851Z,11.40
2023-05-17T02:27:08.762Z,11.40
2023-05-17T02:29:36.051Z,11.40
2023-05-17T02:32:02.974Z,11.50
2023-05-17T02:34:29.902Z,11.40
2023-05-17T02:36:57.804Z,11.40
2023-05-17T02:39:24.709Z,11.50
2023-05-17T02:41:54.969Z,11.50
2023-05-17T02:44:21.822Z,11.50
2023-05-17T02:46:48.769Z,11.50
2023-05-17T02:49:15.718Z,11.50
2023-05-17T02:51:42.638Z,11.50
2023-05-17T02:54:09.532Z,11.50
2023-05-17T02:56:36.643Z,11.50
2023-05-17T02:59:03.589Z,11.60
2023-05-17T03:01:30.463Z,11.50
2023-05-17T03:03:57.502Z,11.60
2023-05-17T03:06:24.558Z,11.70
2023-05-17T03:08:51.466Z,11.70
2023-05-17T03:11:18.412Z,11.70
2023-05-17T03:13:46.493Z,11.60
2023-05-17T03:16:13.477Z,11.60
2023-05-17T03:18:40.512Z,11.60
2023-05-17T03:21:07.517Z,11.60
2023-05-17T03:23:34.582Z,11.70
2023-05-17T03:26:01.471Z,11.70
2023-05-17T03:28:28.379Z,11.70
2023-05-17T03:30:55.554Z,11.70
2023-05-17T03:33:22.804Z,11.70
2023-05-17T03:35:49.911Z,11.80
2023-05-17T03:38:17.103Z,11.80
2023-05-17T03:40:44.213Z,11.70
2023-05-17T03:43:11.103Z,11.80
2023-05-17T03:45:38.027Z,11.80
2023-05-17T03:48:05.617Z,11.80
2023-05-17T03:50:32.791Z,11.80
2023-05-17T03:52:59.701Z,11.80
2023-05-17T03:55:26.966Z,11.80
2023-05-17T03:57:54.030Z,11.80
2023-05-17T04:00:23.989Z,11.80
2023-05-17T04:02:51.291Z,11.80
2023-05-17T04:05:20.526Z,11.80
2023-05-17T04:07:47.498Z,11.80
2023-05-17T04:10:15.568Z,11.80
2023-05-17T04:12:42.449Z,11.80
2023-05-17T04:15:09.839Z,11.90
2023-05-17T04:17:36.801Z,11.90
2023-05-17T04:20:06.504Z,11.80
2023-05-17T04:22:33.993Z,11.80
2023-05-17T04:25:01.464Z,11.80
2023-05-17T04:27:28.477Z,11.90
2023-05-17T04:29:55.479Z,11.80
2023-05-17T04:32:23.007Z,11.90
2023-05-17T04:34:49.951Z,11.90
2023-05-17T04:37:17.044Z,11.90
2023-05-17T04:39:44.001Z,11.90
2023-05-17T04:42:10.944Z,11.90
2023-05-17T04:44:37.828Z,11.90
2023-05-17T04:47:05.052Z,11.90
2023-05-17T04:49:31.918Z,11.90
2023-05-17T04:51:58.825Z,12.00
2023-05-17T04:54:26.324Z,12.00
2023-05-17T04:56:53.194Z,12.00
2023-05-17T04:59:20.138Z,12.00
2023-05-17T05:01:47.038Z,12.00
2023-05-17T05:04:14.155Z,12.10
2023-05-17T05:06:41.319Z,12.10
2023-05-17T05:09:08.245Z,12.10
2023-05-17T05:11:35.192Z,12.20
2023-05-17T05:14:02.125Z,12.20
2023-05-17T05:16:29.035Z,12.20
2023-05-17T05:18:56.054Z,12.20
2023-05-17T05:21:23.001Z,12.30
2023-05-17T05:23:49.947Z,12.30
2023-05-17T05:26:17.024Z,12.30
2023-05-17T05:28:43.926Z,12.30
2023-05-17T05:31:10.864Z,12.30
2023-05-17T05:33:37.963Z,12.30
2023-05-17T05:36:08.249Z,12.30
2023-05-17T05:38:35.177Z,12.30
2023-05-17T05:41:02.120Z,12.40
2023-05-17T05:43:29.051Z,12.40
2023-05-17T05:45:55.975Z,12.40
2023-05-17T05:48:23.020Z,12.40
2023-05-17T05:50:50.980Z,12.50
2023-05-17T05:53:19.762Z,12.60
2023-05-17T05:55:46.954Z,12.70
2023-05-17T05:58:13.902Z,12.70
2023-05-17T06:00:40.788Z,12.80
2023-05-17T06:03:07.802Z,12.80
2023-05-17T06:05:34.864Z,12.90
2023-05-17T06:08:02.003Z,12.90
2023-05-17T06:10:29.344Z,12.90
2023-05-17T06:12:56.444Z,13.00
2023-05-17T06:15:23.339Z,13.10
2023-05-17T06:17:50.378Z,13.20
2023-05-17T06:20:17.494Z,13.40
2023-05-17T06:22:46.459Z,13.50
2023-05-17T06:25:13.374Z,13.50
2023-05-17T06:27:40.403Z,13.40
2023-05-17T06:30:07.883Z,13.30
2023-05-17T06:32:35.436Z,13.30
2023-05-17T06:35:02.879Z,13.30
2023-05-17T06:37:29.788Z,13.30
2023-05-17T06:40:14.823Z,13.30
2023-05-17T06:42:43.322Z,13.30
2023-05-17T06:45:11.094Z,13.30
2023-05-17T06:47:38.134Z,13.40
2023-05-17T06:50:05.774Z,13.40
2023-05-17T06:52:32.819Z,13.50
2023-05-17T06:54:59.773Z,13.60
2023-05-17T06:57:27.685Z,13.60
2023-05-17T06:59:54.563Z,13.60
2023-05-17T07:02:21.565Z,13.60
2023-05-17T07:04:49.581Z,13.60
2023-05-17T07:07:16.581Z,13.60
2023-05-17T07:09:45.527Z,13.70
2023-05-17T07:12:12.620Z,13.80
2023-05-17T07:14:39.543Z,13.80
2023-05-17T07:17:06.479Z,13.90
2023-05-17T07:19:33.513Z,13.80
2023-05-17T07:22:00.567Z,13.80
2023-05-17T07:24:28.630Z,14.00
2023-05-17T07:26:55.821Z,14.10
2023-05-17T07:29:24.244Z,14.20
2023-05-17T07:31:51.121Z,14.40
2023-05-17T07:34:18.115Z,14.50
2023-05-17T07:36:45.127Z,14.60
2023-05-17T07:39:12.331Z,14.80
2023-05-17T07:41:39.835Z,14.90
2023-05-17T07:44:06.719Z,14.90
2023-05-17T07:46:33.732Z,14.90
2023-05-17T07:49:01.922Z,14.90
2023-05-17T07:51:28.914Z,14.90
2023-05-17T07:53:55.957Z,15.10
2023-05-17T07:56:23.395Z,15.20
2023-05-17T07:58:50.830Z,15.20
2023-05-17T08:01:18.890Z,15.20
2023-05-17T08:03:48.403Z,15.10
2023-05-17T08:06:16.606Z,15.20
2023-05-17T08:08:43.680Z,15.10
2023-05-17T08:11:12.043Z,15.10
2023-05-17T08:13:39.049Z,15.00
2023-05-17T08:16:13.711Z,15.00
2023-05-17T08:18:43.152Z,15.10
2023-05-17T08:21:11.741Z,15.10
2023-05-17T08:23:38.969Z,15.10
2023-05-17T08:26:06.185Z,15.10
2023-05-17T08:28:33.113Z,15.20
2023-05-17T08:31:00.036Z,15.40
2023-05-17T08:33:27.708Z,15.40
2023-05-17T08:35:55.551Z,15.50
2023-05-17T08:38:22.690Z,15.50
2023-05-17T08:40:56.300Z,15.40
2023-05-17T08:43:27.359Z,15.30
2023-05-17T08:45:57.755Z,15.30
2023-05-17T08:48:31.309Z,15.40
2023-05-17T08:50:58.551Z,15.50
2023-05-17T08:53:26.681Z,15.60
2023-05-17T08:55:56.660Z,15.60
2023-05-17T08:58:27.204Z,15.60
2023-05-17T09:00:54.372Z,15.80
2023-05-17T09:03:22.576Z,15.70
2023-05-17T09:05:53.730Z,15.80
2023-05-17T09:08:21.834Z,15.80
2023-05-17T09:10:48.999Z,15.80
2023-05-17T09:13:16.229Z,15.90
2023-05-17T09:15:44.326Z,15.90
2023-05-17T09:18:12.481Z,15.80
2023-05-17T09:20:39.919Z,15.90
2023-05-17T09:23:11.223Z,15.90
2023-05-17T09:25:38.203Z,15.70
2023-05-17T09:28:08.000Z,15.80
2023-05-17T09:30:38.127Z,15.80
2023-05-17T09:33:08.925Z,15.80
2023-05-17T09:35:36.719Z,15.70
2023-05-17T09:38:13.839Z,15.80
2023-05-17T09:40:41.439Z,15.90
2023-05-17T09:43:08.576Z,16.00
2023-05-17T09:45:36.373Z,16.20
2023-05-17T09:48:22.576Z,16.30
2023-05-17T09:50:50.869Z,16.40
2023-05-17T09:53:27.906Z,16.50
2023-05-17T09:55:59.000Z,16.60
2023-05-17T09:58:26.812Z,16.60
2023-05-17T10:00:54.995Z,16.70
2023-05-17T10:03:22.453Z,16.70
2023-05-17T10:05:52.163Z,16.50
2023-05-17T10:08:25.953Z,16.50
2023-05-17T10:11:06.053Z,16.40
2023-05-17T10:13:55.591Z,16.50
2023-05-17T10:16:23.549Z,16.70
2023-05-17T10:18:50.631Z,16.50
2023-05-17T10:21:17.723Z,16.40
2023-05-17T10:23:44.723Z,16.30
2023-05-17T10:26:12.572Z,16.00
2023-05-17T10:28:39.540Z,16.10
2023-05-17T10:31:06.568Z,16.20
2023-05-17T10:33:33.949Z,16.40
2023-05-17T10:36:01.598Z,16.30
2023-05-17T10:38:38.615Z,16.40
2023-05-17T10:41:12.900Z,16.40
2023-05-17T10:43:40.706Z,16.50
2023-05-17T10:46:21.394Z,16.30
2023-05-17T10:48:51.197Z,16.50
2023-05-17T10:51:38.424Z,16.40
2023-05-17T10:54:09.317Z,16.30
2023-05-17T10:56:36.363Z,16.20
2023-05-17T10:59:23.455Z,16.30
2023-05-17T11:01:54.968Z,16.20
2023-05-17T11:04:24.211Z,16.20
2023-05-17T11:06:57.262Z,16.30
2023-05-17T11:09:24.382Z,16.40
2023-05-17T11:12:10.604Z,16.40
2023-05-17T11:14:46.643Z,16.20
2023-05-17T11:17:19.212Z,16.30
2023-05-17T11:19:56.338Z,16.40
2023-05-17T11:22:27.662Z,16.50
2023-05-17T11:24:57.011Z,16.70
2023-05-17T11:27:27.638Z,16.70
2023-05-17T11:29:58.926Z,16.60
2023-05-17T11:32:29.530Z,16.50
2023-05-17T11:34:56.700Z,16.70
2023-05-17T11:37:30.133Z,16.70
2023-05-17T11:40:08.523Z,16.70
2023-05-17T11:42:38.468Z,16.80
2023-05-17T11:45:06.108Z,16.80
2023-05-17T11:47:33.353Z,16.90
2023-05-17T11:50:03.987Z,16.60
2023-05-17T11:52:31.870Z,16.50
2023-05-17T11:54:59.038Z,16.60
2023-05-17T11:57:30.797Z,16.30
2023-05-17T12:00:01.997Z,16.20
2023-05-17T12:02:33.181Z,16.10
2023-05-17T12:05:00.386Z,16.20
2023-05-17T12:07:27.394Z,16.20
2023-05-17T12:09:54.297Z,16.20
2023-05-17T12:12:24.014Z,16.00
2023-05-17T12:14:51.157Z,16.00
2023-05-17T12:17:29.628Z,16.20
2023-05-17T12:19:56.669Z,16.50
2023-05-17T12:22:23.687Z,16.40
2023-05-17T12:24:50.664Z,16.10
2023-05-17T12:27:26.100Z,16.50
2023-05-17T12:29:54.182Z,16.60
2023-05-17T12:32:21.428Z,16.60
2023-05-17T12:34:49.404Z,16.50
2023-05-17T12:37:16.333Z,16.80
2023-05-17T12:39:43.318Z,16.70
2023-05-17T12:42:10.354Z,16.20
2023-05-17T12:44:37.267Z,16.20
2023-05-17T12:47:04.281Z,16.40
2023-05-17T12:49:31.180Z,16.50
2023-05-17T12:52:02.912Z,16.50
2023-05-17T12:54:29.929Z,16.60
2023-05-17T12:56:57.092Z,16.60
2023-05-17T12:59:29.086Z,16.70
2023-05-17T13:01:56.833Z,16.80
2023-05-17T13:04:37.916Z,16.60
2023-05-17T13:07:06.192Z,16.60
2023-05-17T13:09:34.239Z,16.30
2023-05-17T13:12:10.962Z,16.30
2023-05-17T13:14:46.725Z,16.70
2023-05-17T13:17:25.823Z,16.80
2023-05-17T13:19:57.964Z,16.40
2023-05-17T13:22:25.369Z,16.40
2023-05-17T13:24:52.326Z,16.40
2023-05-17T13:27:19.377Z,16.10
2023-05-17T13:29:46.432Z,16.20
2023-05-17T13:32:14.124Z,16.40
2023-05-17T13:34:41.401Z,16.50
2023-05-17T13:37:11.607Z,16.40
2023-05-17T13:39:39.445Z,16.50
2023-05-17T13:42:06.771Z,16.70
2023-05-17T13:44:33.759Z,16.80
2023-05-17T13:47:00.934Z,17.10
2023-05-17T13:49:28.710Z,17.20
2023-05-17T13:51:55.679Z,16.80
2023-05-17T13:54:25.412Z,16.60
2023-05-17T13:56:52.460Z,16.90
2023-05-17T13:59:19.378Z,16.80
2023-05-17T14:01:46.491Z,16.80
2023-05-17T14:04:13.670Z,16.50
2023-05-17T14:06:41.941Z,16.60
2023-05-17T14:09:08.870Z,16.90
2023-05-17T14:11:35.797Z,16.90
2023-05-17T14:14:04.178Z,17.10
2023-05-17T14:16:31.316Z,17.20
2023-05-17T14:19:01.998Z,17.20
2023-05-17T14:21:31.568Z,17.00
2023-05-17T14:23:58.460Z,16.90
2023-05-17T14:26:26.258Z,16.80
2023-05-17T14:28:53.688Z,16.60
2023-05-17T14:31:20.604Z,16.60
2023-05-17T14:33:47.613Z,16.70
2023-05-17T14:36:14.588Z,16.50
2023-05-17T14:38:41.513Z,16.30
2023-05-17T14:41:08.578Z,16.20
2023-05-17T14:43:35.495Z,16.20
2023-05-17T14:46:03.817Z,16.40
2023-05-17T14:48:31.280Z,16.50
2023-05-17T14:50:58.315Z,16.70
2023-05-17T14:53:29.175Z,16.90
2023-05-17T14:55:57.402Z,17.20
2023-05-17T14:58:24.403Z,17.10
2023-05-17T15:01:05.222Z,16.80
2023-05-17T15:03:34.521Z,16.90
2023-05-17T15:06:06.276Z,16.70
2023-05-17T15:08:34.639Z,16.30
2023-05-17T15:11:01.745Z,16.20
2023-05-17T15:13:28.708Z,16.50
2023-05-17T15:15:55.855Z,16.70
2023-05-17T15:18:22.781Z,16.90
2023-05-17T15:20:51.125Z,16.70
2023-05-17T15:23:19.243Z,16.70
2023-05-17T15:25:46.546Z,16.60
2023-05-17T15:28:14.073Z,16.40
2023-05-17T15:30:42.050Z,16.20
2023-05-17T15:33:09.336Z,16.30
2023-05-17T15:35:37.187Z,16.40
2023-05-17T15:38:06.087Z,16.50
2023-05-17T15:40:33.911Z,16.40
2023-05-17T15:43:00.892Z,16.40
2023-05-17T15:45:28.113Z,16.50
2023-05-17T15:47:57.126Z,16.20
2023-05-17T15:50:24.235Z,16.10
2023-05-17T15:52:52.475Z,16.20
2023-05-17T15:55:19.546Z,16.30
2023-05-17T15:57:46.794Z,16.30
2023-05-17T16:00:14.234Z,16.20
2023-05-17T16:02:41.265Z,16.40
2023-05-17T16:05:08.742Z,16.30
2023-05-17T16:07:35.666Z,16.50
2023-05-17T16:10:02.702Z,16.50
2023-05-17T16:12:29.716Z,16.60
2023-05-17T16:14:57.975Z,16.70
2023-05-17T16:17:24.905Z,16.30
2023-05-17T16:19:53.932Z,16.20
2023-05-17T16:22:21.666Z,15.80
2023-05-17T16:24:52.309Z,15.90
2023-05-17T16:27:19.451Z,16.20
2023-05-17T16:29:46.444Z,16.30
2023-05-17T16:32:13.345Z,16.30
2023-05-17T16:34:40.237Z,16.10
2023-05-17T16:37:07.333Z,16.40
2023-05-17T16:39:34.265Z,16.50
2023-05-17T16:42:01.504Z,16.60
2023-05-17T16:44:29.507Z,16.30
2023-05-17T16:46:56.455Z,16.20
2023-05-17T16:49:23.573Z,15.70
2023-05-17T16:51:52.302Z,15.60
2023-05-17T16:54:19.252Z,15.40
2023-05-17T16:56:46.555Z,15.60
2023-05-17T16:59:13.555Z,16.10
2023-05-17T17:01:40.543Z,16.60
2023-05-17T17:04:07.754Z,16.80
2023-05-17T17:06:35.094Z,17.10
2023-05-17T17:09:07.057Z,17.20
2023-05-17T17:11:34.776Z,17.40
2023-05-17T17:14:01.745Z,17.10
2023-05-17T17:16:29.937Z,16.70
2023-05-17T17:18:57.484Z,16.40
2023-05-17T17:21:24.638Z,16.60
2023-05-17T17:23:51.837Z,17.10
2023-05-17T17:26:18.856Z,16.80
2023-05-17T17:28:46.072Z,16.20
2023-05-17T17:31:13.106Z,15.60
2023-05-17T17:33:40.319Z,15.00
2023-05-17T17:36:09.330Z,14.60
2023-05-17T17:38:36.368Z,14.30
2023-05-17T17:41:03.434Z,14.00
2023-05-17T17:43:30.432Z,13.90
2023-05-17T17:45:57.333Z,13.80
2023-05-17T17:48:25.561Z,13.60
2023-05-17T17:50:52.509Z,13.50
2023-05-17T17:53:19.424Z,13.30
2023-05-17T17:55:46.359Z,13.30
2023-05-17T17:58:13.286Z,13.40
2023-05-17T18:00:40.256Z,13.30
2023-05-17T18:03:07.291Z,13.30
2023-05-17T18:05:34.319Z,13.30
2023-05-17T18:08:01.250Z,13.40
2023-05-17T18:10:28.653Z,13.40
2023-05-17T18:12:55.805Z,13.30
2023-05-17T18:15:22.845Z,13.20
2023-05-17T18:17:52.212Z,13.20
2023-05-17T18:20:19.680Z,13.10
2023-05-17T18:22:47.603Z,13.10
2023-05-17T18:25:14.604Z,13.00
2023-05-17T18:27:41.659Z,13.00
2023-05-17T18:30:10.434Z,12.90
2023-05-17T18:32:37.578Z,12.90
2023-05-17T18:35:05.944Z,12.80
2023-05-17T18:37:33.889Z,12.80
2023-05-17T18:40:02.403Z,12.70
2023-05-17T18:42:29.568Z,12.60
2023-05-17T18:44:56.520Z,12.50
2023-05-17T18:47:23.647Z,12.40
2023-05-17T18:49:51.992Z,12.40
2023-05-17T18:52:18.875Z,12.40
2023-05-17T18:54:47.658Z,12.50
2023-05-17T18:57:15.361Z,12.50
2023-05-17T18:59:42.363Z,12.50
2023-05-17T19:02:09.311Z,12.40
2023-05-17T19:04:36.865Z,12.40
2023-05-17T19:07:04.046Z,12.40
2023-05-17T19:09:34.540Z,12.40
2023-05-17T19:12:01.529Z,12.30
2023-05-17T19:14:28.468Z,12.30
2023-05-17T19:16:57.726Z,12.20
2023-05-17T19:19:25.980Z,12.10
2023-05-17T19:21:53.028Z,12.20
2023-05-17T19:24:20.002Z,12.10
2023-05-17T19:26:46.886Z,12.00
2023-05-17T19:29:13.834Z,11.90
2023-05-17T19:31:40.845Z,12.00
2023-05-17T19:34:07.835Z,11.90
2023-05-17T19:36:34.761Z,11.90
2023-05-17T19:39:01.703Z,11.80
2023-05-17T19:41:28.669Z,11.70
2023-05-17T19:43:56.019Z,11.60
2023-05-17T19:46:22.974Z,11.60
2023-05-17T19:48:49.888Z,11.50
2023-05-17T19:51:16.914Z,11.60
2023-05-17T19:53:52.495Z,11.50
2023-05-17T19:56:19.956Z,11.60
2023-05-17T19:58:46.878Z,11.50
2023-05-17T20:01:13.792Z,11.50
2023-05-17T20:03:41.108Z,11.50
2023-05-17T20:06:11.180Z,11.40
2023-05-17T20:08:38.081Z,11.40
2023-05-17T20:11:05.684Z,11.40
2023-05-17T20:13:34.184Z,11.40
2023-05-17T20:16:02.090Z,11.40
2023-05-17T20:18:34.919Z,11.40
2023-05-17T20:21:01.848Z,11.30
2023-05-17T20:23:28.735Z,11.30
2023-05-17T20:25:55.779Z,11.30
2023-05-17T20:28:22.724Z,11.30
2023-05-17T20:30:49.623Z,11.30
2023-05-17T20:33:21.869Z,11.20
2023-05-17T20:35:48.816Z,11.30
2023-05-17T20:38:15.842Z,11.30
2023-05-17T20:40:42.740Z,11.20
2023-05-17T20:43:09.836Z,11.20
2023-05-17T20:45:36.830Z,11.20
2023-05-17T20:48:03.876Z,11.20
2023-05-17T20:50:31.016Z,11.10
2023-05-17T20:52:58.122Z,11.10
2023-05-17T20:55:25.049Z,11.00
2023-05-17T20:57:51.932Z,11.00
2023-05-17T21:00:20.881Z,11.00
2023-05-17T21:02:47.931Z,11.00
2023-05-17T21:05:15.164Z,11.00
2023-05-17T21:07:42.107Z,10.90
2023-05-17T21:10:09.480Z,10.90
2023-05-17T21:12:36.371Z,10.90
2023-05-17T21:15:15.711Z,11.00
2023-05-17T21:17:43.855Z,11.00
2023-05-17T21:20:12.268Z,10.90
2023-05-17T21:22:39.154Z,10.90
2023-05-17T21:25:06.527Z,10.90
2023-05-17T21:27:36.848Z,10.80
2023-05-17T21:30:03.951Z,10.80
2023-05-17T21:32:31.021Z,10.90
2023-05-17T21:34:59.669Z,10.80
2023-05-17T21:37:26.676Z,10.90
2023-05-17T21:39:53.628Z,10.80
2023-05-17T21:42:21.424Z,10.90
2023-05-17T21:44:48.379Z,10.90
2023-05-17T21:47:15.590Z,10.80
2023-05-17T21:49:42.515Z,10.80
2023-05-17T21:52:09.400Z,10.80
2023-05-17T21:54:36.333Z,10.80
2023-05-17T21:57:03.337Z,10.80
2023-05-17T21:59:30.241Z,10.80
2023-05-17T22:02:03.214Z,10.70
2023-05-17T22:04:30.098Z,10.80
2023-05-17T22:06:57.030Z,10.80
2023-05-17T22:09:24.942Z,10.80
2023-05-17T22:11:52.490Z,10.80
2023-05-17T22:14:19.446Z,10.80
2023-05-17T22:16:47.113Z,10.80
2023-05-17T22:19:14.191Z,10.80
2023-05-17T22:21:41.450Z,10.80
2023-05-17T22:24:08.500Z,10.80
2023-05-17T22:26:35.575Z,10.80
2023-05-17T22:29:02.516Z,10.80
2023-05-17T22:31:29.499Z,10.80
2023-05-17T22:33:56.425Z,10.80
2023-05-17T22:36:24.934Z,10.80
2023-05-17T22:38:52.039Z,10.80
2023-05-17T22:41:18.926Z,10.80
2023-05-17T22:43:45.891Z,10.80
2023-05-17T22:46:12.824Z,10.80
2023-05-17T22:48:40.573Z,10.80
2023-05-17T22:51:07.632Z,10.80
2023-05-17T22:53:34.519Z,10.90
2023-05-17T22:56:01.392Z,10.80
2023-05-17T22:58:28.350Z,10.80
2023-05-17T23:00:56.038Z,10.80
2023-05-17T23:03:23.004Z,10.80
2023-05-17T23:05:51.531Z,10.80
2023-05-17T23:08:18.438Z,10.80
2023-05-17T23:10:45.697Z,10.80
2023-05-17T23:13:13.122Z,10.80
2023-05-17T23:15:40.985Z,10.80
2023-05-17T23:18:08.151Z,10.80
2023-05-17T23:20:35.220Z,10.80
2023-05-17T23:23:02.241Z,10.80
2023-05-17T23:25:29.645Z,10.80
2023-05-17T23:27:59.618Z,10.80
2023-05-17T23:30:26.548Z,10.80
2023-05-17T23:32:55.268Z,10.80
2023-05-17T23:35:24.012Z,10.80
2023-05-17T23:37:50.962Z,10.70
2023-05-17T23:40:17.915Z,10.70
2023-05-17T23:42:46.122Z,10.70
2023-05-17T23:45:14.328Z,10.70
2023-05-17T23:47:41.489Z,10.70
2023-05-17T23:50:12.135Z,10.70
2023-05-17T23:52:39.421Z,10.60
2023-05-17T23:55:07.790Z,10.70
2023-05-17T23:57:35.412Z,10.70
